createdAt,value
2023-05-09T00:01:10.944Z,0.30
2023-05-09T00:03:44.344Z,0.30
2023-05-09T00:06:15.656Z,0.30
2023-05-09T00:08:46.010Z,0.30
2023-05-09T00:11:15.851Z,0.40
2023-05-09T00:13:46.265Z,0.30
2023-05-09T00:16:18.151Z,0.40
2023-05-09T00:18:51.133Z,0.35
2023-05-09T00:21:20.935Z,0.40
2023-05-09T00:23:50.953Z,0.30
2023-05-09T00:26:22.039Z,0.40
2023-05-09T00:28:52.633Z,0.40
2023-05-09T00:31:23.466Z,0.30
2023-05-09T00:33:57.472Z,0.40
2023-05-09T00:36:27.790Z,0.30
2023-05-09T00:38:57.841Z,0.30
2023-05-09T00:41:29.458Z,0.40
2023-05-09T00:43:59.896Z,0.40
2023-05-09T00:46:30.205Z,0.40
2023-05-09T00:49:04.759Z,0.30
2023-05-09T00:51:36.003Z,0.35
2023-05-09T00:54:09.284Z,0.40
2023-05-09T00:56:41.188Z,0.30
2023-05-09T00:59:11.479Z,0.40
2023-05-09T01:01:41.831Z,0.30
2023-05-09T01:04:15.574Z,0.30
2023-05-09T01:06:55.394Z,0.40
2023-05-09T01:09:31.586Z,0.40
2023-05-09T01:12:14.060Z,0.40
2023-05-09T01:14:54.002Z,0.40
2023-05-09T01:17:34.631Z,0.35
2023-05-09T01:20:15.600Z,0.40
2023-05-09T01:22:49.666Z,0.30
2023-05-09T01:25:41.051Z,0.30
2023-05-09T01:28:17.238Z,0.30
2023-05-09T01:30:54.735Z,0.40
2023-05-09T01:33:27.361Z,0.40
2023-05-09T01:36:05.288Z,0.40
2023-05-09T01:38:36.331Z,0.35
2023-05-09T01:41:07.337Z,0.30
2023-05-09T01:43:39.484Z,0.40
2023-05-09T01:46:13.043Z,0.50
2023-05-09T01:48:44.502Z,0.30
2023-05-09T01:51:17.389Z,0.40
2023-05-09T01:53:51.293Z,0.40
2023-05-09T01:56:23.877Z,0.40
2023-05-09T01:58:55.224Z,0.40
2023-05-09T02:01:28.623Z,0.43
2023-05-09T02:04:00.935Z,0.32
2023-05-09T02:06:32.992Z,0.40
2023-05-09T02:09:04.448Z,0.40
2023-05-09T02:11:34.610Z,0.40
2023-05-09T02:14:07.094Z,0.30
2023-05-09T02:16:42.143Z,0.30
2023-05-09T02:19:12.026Z,0.40
2023-05-09T02:21:42.302Z,0.40
2023-05-09T02:24:14.404Z,0.40
2023-05-09T02:26:45.386Z,0.40
2023-05-09T02:29:16.360Z,0.40
2023-05-09T02:31:53.593Z,0.40
2023-05-09T02:34:26.020Z,0.40
2023-05-09T02:36:57.122Z,0.40
2023-05-09T02:39:27.266Z,0.40
2023-05-09T02:41:57.030Z,0.40
2023-05-09T02:44:28.724Z,0.40
2023-05-09T02:47:01.295Z,0.40
2023-05-09T02:49:32.766Z,0.40
2023-05-09T02:52:06.247Z,0.40
2023-05-09T02:54:36.442Z,0.40
2023-05-09T02:57:07.106Z,0.40
2023-05-09T02:59:37.185Z,0.40
2023-05-09T03:02:09.716Z,0.40
2023-05-09T03:04:40.325Z,0.40
2023-05-09T03:07:11.130Z,0.40
2023-05-09T03:09:41.369Z,0.40
2023-05-09T03:12:12.148Z,0.40
2023-05-09T03:14:42.490Z,0.60
2023-05-09T03:17:17.604Z,0.40
2023-05-09T03:19:47.763Z,0.40
2023-05-09T03:22:17.835Z,0.40
2023-05-09T03:24:55.789Z,0.40
2023-05-09T03:27:26.535Z,0.40
2023-05-09T03:29:57.721Z,0.50
2023-05-09T03:32:30.645Z,0.40
2023-05-09T03:35:00.680Z,0.50
2023-05-09T03:37:31.002Z,0.50
2023-05-09T03:40:01.749Z,0.40
2023-05-09T03:42:35.278Z,0.40
2023-05-09T03:45:10.330Z,0.40
2023-05-09T03:47:43.168Z,0.40
2023-05-09T03:50:15.197Z,0.40
2023-05-09T03:52:47.131Z,0.40
2023-05-09T03:55:20.706Z,0.40
2023-05-09T03:57:50.702Z,0.45
2023-05-09T04:00:22.584Z,0.40
2023-05-09T04:03:07.178Z,0.50
2023-05-09T04:05:42.637Z,0.40
2023-05-09T04:08:21.752Z,0.52
2023-05-09T04:10:53.276Z,0.50
2023-05-09T04:13:25.464Z,0.50
2023-05-09T04:15:55.850Z,0.60
2023-05-09T04:18:29.303Z,0.45
2023-05-09T04:21:01.394Z,0.30
2023-05-09T04:23:33.680Z,0.38
2023-05-09T04:26:03.902Z,0.40
2023-05-09T04:28:37.332Z,0.40
2023-05-09T04:31:08.267Z,0.50
2023-05-09T04:33:41.979Z,0.40
2023-05-09T04:36:13.078Z,0.50
2023-05-09T04:38:42.959Z,0.40
2023-05-09T04:41:17.596Z,0.40
2023-05-09T04:43:48.028Z,0.40
2023-05-09T04:46:18.122Z,0.30
2023-05-09T04:48:51.607Z,0.40
2023-05-09T04:51:21.586Z,0.50
2023-05-09T04:53:51.921Z,0.50
2023-05-09T04:56:25.309Z,0.50
2023-05-09T04:58:55.949Z,0.40
2023-05-09T05:01:26.999Z,0.40
2023-05-09T05:04:00.834Z,0.40
2023-05-09T05:06:33.425Z,0.40
2023-05-09T05:09:03.874Z,0.30
2023-05-09T05:11:34.031Z,0.40
2023-05-09T05:14:06.307Z,0.40
2023-05-09T05:16:38.120Z,0.40
2023-05-09T05:19:11.574Z,0.40
2023-05-09T05:21:43.707Z,0.40
2023-05-09T05:24:13.867Z,0.40
2023-05-09T05:26:44.200Z,0.52
2023-05-09T05:29:15.224Z,0.50
2023-05-09T05:31:45.322Z,0.40
2023-05-09T05:34:17.865Z,0.40
2023-05-09T05:36:49.443Z,0.40
2023-05-09T05:39:19.886Z,0.40
2023-05-09T05:41:52.214Z,0.40
2023-05-09T05:44:24.741Z,0.40
2023-05-09T05:46:56.188Z,0.30
2023-05-09T05:49:28.899Z,0.30
2023-05-09T05:51:59.946Z,0.40
2023-05-09T05:54:30.126Z,0.40
2023-05-09T05:57:00.166Z,0.40
2023-05-09T05:59:30.200Z,0.30
2023-05-09T06:02:04.389Z,0.40
2023-05-09T06:04:37.897Z,0.40
2023-05-09T06:07:07.960Z,0.30
2023-05-09T06:09:37.911Z,0.30
2023-05-09T06:12:09.132Z,0.30
2023-05-09T06:14:39.581Z,0.30
2023-05-09T06:17:09.949Z,0.40
2023-05-09T06:19:42.537Z,0.38
2023-05-09T06:22:13.007Z,0.40
2023-05-09T06:24:43.150Z,0.40
2023-05-09T06:27:13.183Z,0.40
2023-05-09T06:29:43.318Z,0.30
2023-05-09T06:32:13.200Z,0.30
2023-05-09T06:34:53.419Z,0.30
2023-05-09T06:37:23.575Z,0.40
2023-05-09T06:39:53.456Z,0.30
2023-05-09T06:42:23.398Z,0.40
2023-05-09T06:44:54.628Z,0.30
2023-05-09T06:47:25.804Z,0.30
2023-05-09T06:49:58.578Z,0.30
2023-05-09T06:52:28.707Z,0.30
2023-05-09T06:54:58.506Z,0.30
2023-05-09T06:57:29.737Z,0.30
2023-05-09T06:59:59.929Z,0.30
2023-05-09T07:02:30.523Z,0.30
2023-05-09T07:05:03.664Z,0.30
2023-05-09T07:07:34.127Z,0.30
2023-05-09T07:10:11.314Z,0.30
2023-05-09T07:12:42.431Z,0.30
2023-05-09T07:15:18.341Z,0.30
2023-05-09T07:17:57.837Z,0.30
2023-05-09T07:23:46.398Z,0.30
2023-05-09T07:26:48.984Z,0.30
2023-05-09T07:30:04.093Z,0.30
2023-05-09T07:32:53.382Z,0.30
2023-05-09T07:35:30.902Z,0.30
2023-05-09T07:41:19.593Z,0.30
2023-05-09T07:44:08.731Z,0.30
2023-05-09T07:46:43.362Z,0.20
2023-05-09T07:49:19.821Z,0.25
2023-05-09T07:51:56.183Z,0.28
2023-05-09T07:54:56.366Z,0.30
2023-05-09T07:58:01.673Z,0.20
2023-05-09T08:00:40.140Z,0.30
2023-05-09T08:03:21.894Z,0.20
2023-05-09T08:06:15.078Z,0.20
2023-05-09T08:08:59.432Z,0.20
2023-05-09T08:15:19.919Z,0.30
2023-05-09T08:18:00.002Z,0.20
2023-05-09T08:23:54.874Z,0.20
2023-05-09T08:27:15.708Z,0.30
2023-05-09T08:29:52.855Z,0.20
2023-05-09T08:32:25.966Z,0.20
2023-05-09T08:34:56.899Z,0.20
2023-05-09T08:37:27.713Z,0.17
2023-05-09T08:39:58.205Z,0.20
2023-05-09T08:42:32.809Z,0.20
2023-05-09T08:45:04.886Z,0.10
2023-05-09T08:47:37.875Z,0.20
2023-05-09T08:50:09.472Z,0.10
2023-05-09T08:52:39.507Z,0.10
2023-05-09T08:55:10.297Z,0.10
2023-05-09T08:57:46.698Z,0.10
2023-05-09T09:00:21.144Z,0.15
2023-05-09T09:02:53.570Z,0.20
2023-05-09T09:05:40.099Z,0.10
2023-05-09T09:08:12.194Z,0.10
2023-05-09T09:10:47.493Z,0.20
2023-05-09T09:13:21.206Z,0.10
2023-05-09T09:15:52.090Z,0.17
2023-05-09T09:18:30.735Z,0.10
2023-05-09T09:21:04.470Z,0.10
2023-05-09T09:23:36.502Z,0.10
2023-05-09T09:26:07.187Z,0.15
2023-05-09T09:28:39.793Z,0.10
2023-05-09T09:31:23.073Z,0.10
2023-05-09T09:33:56.657Z,0.10
2023-05-09T09:36:30.859Z,0.10
2023-05-09T09:39:25.063Z,0.17
2023-05-09T09:42:32.972Z,0.10
2023-05-09T09:45:36.749Z,0.10
2023-05-09T09:48:21.222Z,0.10
2023-05-09T09:51:02.918Z,0.10
2023-05-09T09:53:56.984Z,0.10
2023-05-09T09:56:56.707Z,0.10
2023-05-09T09:59:48.330Z,0.10
2023-05-09T10:02:32.039Z,0.13
2023-05-09T10:05:30.403Z,0.10
2023-05-09T10:08:20.985Z,0.10
2023-05-09T10:11:07.906Z,0.10
2023-05-09T10:13:53.039Z,0.10
2023-05-09T10:16:42.521Z,0.10
2023-05-09T10:19:27.143Z,0.10
2023-05-09T10:22:37.565Z,0.10
2023-05-09T10:28:25.172Z,0.10
2023-05-09T10:31:18.652Z,0.10
2023-05-09T10:34:49.905Z,0.10
2023-05-09T10:37:41.907Z,0.10
2023-05-09T10:40:41.260Z,0.10
2023-05-09T10:43:24.913Z,0.10
2023-05-09T10:46:13.198Z,0.10
2023-05-09T10:48:47.042Z,0.10
2023-05-09T10:51:17.238Z,0.10
2023-05-09T10:53:51.748Z,0.10
2023-05-09T10:56:30.178Z,0.10
2023-05-09T10:59:02.742Z,0.10
2023-05-09T11:01:37.732Z,0.10
2023-05-09T11:04:14.828Z,0.10
2023-05-09T11:06:51.658Z,0.08
2023-05-09T11:09:34.789Z,0.10
2023-05-09T11:12:12.387Z,0.10
2023-05-09T11:14:47.415Z,0.10
2023-05-09T11:17:30.342Z,0.10
2023-05-09T11:20:03.667Z,0.10
2023-05-09T11:22:41.600Z,0.10
2023-05-09T11:25:17.448Z,0.03
2023-05-09T11:27:49.705Z,0.10
2023-05-09T11:30:21.425Z,0.10
2023-05-09T11:32:55.470Z,0.10
2023-05-09T11:35:27.562Z,0.10
2023-05-09T11:38:04.135Z,0.10
2023-05-09T11:40:38.263Z,0.10
2023-05-09T11:43:10.762Z,0.10
2023-05-09T11:45:44.553Z,0.10
2023-05-09T11:48:14.822Z,0.10
2023-05-09T11:50:44.639Z,0.10
2023-05-09T11:53:14.383Z,0.10
2023-05-09T11:55:46.958Z,0.10
2023-05-09T11:58:37.049Z,0.10
2023-05-09T12:01:23.420Z,0.10
2023-05-09T12:04:07.371Z,0.10
2023-05-09T12:07:06.071Z,0.00
2023-05-09T12:10:10.425Z,0.10
2023-05-09T12:12:50.872Z,0.10
2023-05-09T12:16:01.300Z,0.10
2023-05-09T12:18:41.480Z,0.10
2023-05-09T12:21:32.964Z,0.10
2023-05-09T12:27:09.265Z,0.10
2023-05-09T12:30:30.509Z,0.10
2023-05-09T12:33:19.307Z,0.10
2023-05-09T12:36:19.829Z,0.10
2023-05-09T12:39:19.715Z,0.10
2023-05-09T12:42:02.378Z,0.10
2023-05-09T12:44:59.587Z,0.10
2023-05-09T12:47:56.711Z,0.03
2023-05-09T12:51:07.922Z,0.10
2023-05-09T12:53:44.369Z,0.10
2023-05-09T12:59:19.557Z,0.10
2023-05-09T13:05:31.928Z,0.10
2023-05-09T13:08:06.731Z,0.10
2023-05-09T13:10:38.719Z,0.10
2023-05-09T13:13:14.397Z,0.10
2023-05-09T13:15:45.011Z,0.10
2023-05-09T13:18:16.401Z,0.10
2023-05-09T13:20:49.231Z,0.08
2023-05-09T13:23:20.230Z,0.10
2023-05-09T13:25:50.507Z,0.10
2023-05-09T13:28:20.366Z,0.10
2023-05-09T13:30:50.460Z,0.10
2023-05-09T13:35:56.345Z,0.10
2023-05-09T13:38:26.285Z,0.00
2023-05-09T13:40:56.241Z,0.10
2023-05-09T13:43:26.152Z,0.10
2023-05-09T13:45:55.972Z,0.10
2023-05-09T13:48:26.010Z,0.10
2023-05-09T13:51:00.067Z,0.00
2023-05-09T13:53:30.312Z,0.10
2023-05-09T13:56:00.638Z,0.10
2023-05-09T13:58:30.850Z,0.10
2023-05-09T14:01:02.986Z,0.10
2023-05-09T14:03:33.031Z,0.10
2023-05-09T14:06:06.003Z,0.10
2023-05-09T14:08:38.056Z,0.10
2023-05-09T14:11:11.119Z,0.10
2023-05-09T14:13:41.187Z,0.10
2023-05-09T14:16:11.424Z,0.10
2023-05-09T14:18:41.353Z,0.10
2023-05-09T14:21:14.091Z,0.10
2023-05-09T14:23:48.111Z,0.10
2023-05-09T14:26:18.374Z,0.10
2023-05-09T14:28:48.492Z,0.10
2023-05-09T14:31:20.658Z,0.10
2023-05-09T14:33:51.298Z,0.10
2023-05-09T14:36:25.171Z,0.10
2023-05-09T14:38:55.347Z,0.10
2023-05-09T14:41:25.832Z,0.10
2023-05-09T14:43:55.978Z,0.10
2023-05-09T14:46:26.556Z,0.00
2023-05-09T14:49:03.132Z,0.10
2023-05-09T14:51:38.023Z,0.10
2023-05-09T14:54:08.698Z,0.10
2023-05-09T14:56:38.676Z,0.10
2023-05-09T14:59:09.790Z,0.00
2023-05-09T15:01:41.496Z,0.10
2023-05-09T15:04:13.121Z,0.08
2023-05-09T15:06:47.227Z,0.10
2023-05-09T15:09:17.873Z,0.10
2023-05-09T15:11:49.035Z,0.20
2023-05-09T15:14:20.924Z,0.10
2023-05-09T15:16:51.939Z,0.10
2023-05-09T15:19:22.818Z,0.10
2023-05-09T15:21:55.724Z,0.05
2023-05-09T15:24:25.876Z,0.10
2023-05-09T15:26:56.283Z,0.10
2023-05-09T15:29:57.397Z,0.10
2023-05-09T15:32:44.142Z,0.10
2023-05-09T15:35:33.218Z,0.08
2023-05-09T15:38:24.436Z,0.10
2023-05-09T15:44:05.717Z,0.10
2023-05-09T15:46:49.022Z,0.10
2023-05-09T15:49:21.966Z,0.10
2023-05-09T15:52:06.672Z,0.10
2023-05-09T15:55:02.896Z,0.10
2023-05-09T15:57:49.381Z,0.10
2023-05-09T16:00:41.820Z,0.10
2023-05-09T16:03:14.835Z,0.10
2023-05-09T16:05:58.690Z,0.20
2023-05-09T16:08:54.222Z,0.10
2023-05-09T16:11:42.961Z,0.10
2023-05-09T16:14:21.760Z,0.17
2023-05-09T16:17:14.594Z,0.10
2023-05-09T16:20:16.714Z,0.10
2023-05-09T16:23:00.805Z,0.10
2023-05-09T16:29:17.700Z,0.15
2023-05-09T16:32:01.140Z,0.20
2023-05-09T16:34:52.711Z,0.17
2023-05-09T16:37:53.728Z,0.20
2023-05-09T16:40:25.750Z,0.20
2023-05-09T16:42:56.952Z,0.20
2023-05-09T16:45:32.268Z,0.20
2023-05-09T16:48:07.571Z,0.10
2023-05-09T16:50:43.412Z,0.20
2023-05-09T16:53:13.704Z,0.20
2023-05-09T16:55:43.913Z,0.10
2023-05-09T16:58:13.952Z,0.10
2023-05-09T17:00:51.514Z,0.10
2023-05-09T17:03:22.643Z,0.10
2023-05-09T17:05:53.528Z,0.20
2023-05-09T17:08:25.114Z,0.20
2023-05-09T17:10:55.359Z,0.15
2023-05-09T17:13:25.879Z,0.20
2023-05-09T17:15:59.332Z,0.20
2023-05-09T17:18:37.618Z,0.20
2023-05-09T17:21:08.815Z,0.10
2023-05-09T17:23:38.947Z,0.20
2023-05-09T17:26:10.714Z,0.17
2023-05-09T17:28:40.776Z,0.10
2023-05-09T17:31:17.201Z,0.20
2023-05-09T17:33:49.573Z,0.20
2023-05-09T17:36:22.000Z,0.20
2023-05-09T17:38:52.597Z,0.20
2023-05-09T17:41:22.815Z,0.20
2023-05-09T17:43:56.748Z,0.10
2023-05-09T17:46:31.886Z,0.20
2023-05-09T17:49:02.122Z,0.10
2023-05-09T17:51:36.912Z,0.20
2023-05-09T17:54:19.596Z,0.20
2023-05-09T17:57:21.409Z,0.20
2023-05-09T18:00:06.849Z,0.10
2023-05-09T18:03:14.631Z,0.20
2023-05-09T18:09:16.967Z,0.20
2023-05-09T18:12:19.273Z,0.10
2023-05-09T18:25:05.273Z,0.20
2023-05-09T18:27:55.443Z,0.20
2023-05-09T18:30:50.250Z,0.20
2023-05-09T18:33:43.015Z,0.20
2023-05-09T18:45:05.315Z,0.20
2023-05-09T18:48:01.212Z,0.20
2023-05-09T18:51:07.923Z,0.22
2023-05-09T18:53:56.149Z,0.22
2023-05-09T18:56:46.626Z,0.20
2023-05-09T18:59:24.172Z,0.20
2023-05-09T19:01:59.161Z,0.20
2023-05-09T19:04:29.240Z,0.20
2023-05-09T19:07:02.352Z,0.20
2023-05-09T19:09:33.134Z,0.20
2023-05-09T19:12:05.353Z,0.20
2023-05-09T19:14:36.112Z,0.20
2023-05-09T19:17:06.690Z,0.20
2023-05-09T19:19:37.035Z,0.20
2023-05-09T19:22:09.778Z,0.20
2023-05-09T19:24:41.541Z,0.20
2023-05-09T19:27:13.814Z,0.20
2023-05-09T19:29:45.896Z,0.20
2023-05-09T19:32:19.579Z,0.20
2023-05-09T19:34:49.848Z,0.20
2023-05-09T19:37:23.815Z,0.20
2023-05-09T19:39:54.277Z,0.20
2023-05-09T19:42:24.693Z,0.20
2023-05-09T19:44:55.148Z,0.20
2023-05-09T19:47:25.449Z,0.20
2023-05-09T19:49:58.773Z,0.25
2023-05-09T19:52:32.503Z,0.20
2023-05-09T19:55:02.981Z,0.20
2023-05-09T19:57:33.412Z,0.20
2023-05-09T20:00:05.612Z,0.20
2023-05-09T20:02:36.760Z,0.30
2023-05-09T20:05:08.203Z,0.20
2023-05-09T20:07:41.185Z,0.25
2023-05-09T20:10:13.058Z,0.20
2023-05-09T20:12:43.887Z,0.30
2023-05-09T20:15:15.009Z,0.30
2023-05-09T20:17:46.719Z,0.22
2023-05-09T20:20:17.156Z,0.30
2023-05-09T20:22:51.655Z,0.20
2023-05-09T20:25:22.371Z,0.20
2023-05-09T20:27:54.747Z,0.20
2023-05-09T20:30:25.080Z,0.20
2023-05-09T20:32:55.428Z,0.20
2023-05-09T20:35:26.012Z,0.28
2023-05-09T20:37:58.981Z,0.20
2023-05-09T20:40:29.388Z,0.20
2023-05-09T20:43:02.108Z,0.22
2023-05-09T20:45:32.798Z,0.20
2023-05-09T20:48:04.270Z,0.20
2023-05-09T20:50:34.608Z,0.30
2023-05-09T20:53:08.406Z,0.20
2023-05-09T20:55:38.592Z,0.30
2023-05-09T20:58:14.961Z,0.30
2023-05-09T21:00:47.240Z,0.40
2023-05-09T21:03:19.228Z,0.30
2023-05-09T21:05:51.310Z,0.30
2023-05-09T21:08:38.902Z,0.22
2023-05-09T21:11:10.396Z,0.30
2023-05-09T21:13:41.305Z,0.30
2023-05-09T21:16:14.878Z,0.20
2023-05-09T21:18:45.009Z,0.30
2023-05-09T21:21:19.850Z,0.20
2023-05-09T21:24:03.446Z,0.30
2023-05-09T21:26:39.461Z,0.30
2023-05-09T21:29:21.846Z,0.20
2023-05-09T21:34:58.488Z,0.25
2023-05-09T21:37:47.291Z,0.30
2023-05-09T21:40:48.321Z,0.28
2023-05-09T21:43:54.462Z,0.30
2023-05-09T21:46:41.324Z,0.25
2023-05-09T21:49:21.701Z,0.30
2023-05-09T21:51:59.113Z,0.30
2023-05-09T21:54:39.744Z,0.30
2023-05-09T21:57:21.096Z,0.30
2023-05-09T22:00:19.002Z,0.20
2023-05-09T22:02:58.187Z,0.25
2023-05-09T22:05:31.659Z,0.30
2023-05-09T22:08:04.001Z,0.30
2023-05-09T22:10:40.937Z,0.30
2023-05-09T22:13:16.006Z,0.30
2023-05-09T22:15:52.509Z,0.30
2023-05-09T22:18:23.147Z,0.30
2023-05-09T22:20:56.764Z,0.30
2023-05-09T22:23:33.773Z,0.30
2023-05-09T22:26:05.146Z,0.30
2023-05-09T22:28:41.074Z,0.30
2023-05-09T22:31:22.523Z,0.30
2023-05-09T22:33:56.290Z,0.30
2023-05-09T22:36:28.835Z,0.30
2023-05-09T22:39:01.335Z,0.30
2023-05-09T22:41:37.756Z,0.30
2023-05-09T22:44:15.655Z,0.30
2023-05-09T22:46:46.441Z,0.30
2023-05-09T22:49:18.104Z,0.30
2023-05-09T22:51:59.008Z,0.32
2023-05-09T22:54:30.760Z,0.30
2023-05-09T22:57:05.618Z,0.28
2023-05-09T22:59:40.558Z,0.30
2023-05-09T23:02:19.282Z,0.30
2023-05-09T23:04:50.408Z,0.30
2023-05-09T23:07:29.831Z,0.28
2023-05-09T23:10:07.725Z,0.30
2023-05-09T23:12:39.556Z,0.30
2023-05-09T23:15:26.423Z,0.30
2023-05-09T23:18:02.244Z,0.30
2023-05-09T23:20:36.003Z,0.30
2023-05-09T23:25:58.107Z,0.30
2023-05-09T23:28:48.120Z,0.30
2023-05-09T23:31:32.598Z,0.30
2023-05-09T23:34:10.411Z,0.30
2023-05-09T23:36:51.743Z,0.30
2023-05-09T23:39:27.748Z,0.30
2023-05-09T23:42:02.369Z,0.30
2023-05-09T23:44:34.767Z,0.30
2023-05-09T23:47:08.937Z,0.30
2023-05-09T23:49:44.703Z,0.30
2023-05-09T23:52:14.757Z,0.30
2023-05-09T23:54:45.162Z,0.30
2023-05-09T23:57:16.553Z,0.30
2023-05-09T23:59:46.910Z,0.40
